createdAt,value
2022-12-02T00:03:30.841Z,9.50
2022-12-02T00:08:30.932Z,9.63
2022-12-02T00:13:41.068Z,10.38
2022-12-02T00:18:34.809Z,9.05
2022-12-02T00:23:28.782Z,9.75
2022-12-02T00:28:22.975Z,9.50
2022-12-02T00:33:18.636Z,9.43
2022-12-02T00:38:12.187Z,8.90
2022-12-02T00:43:39.844Z,8.55
2022-12-02T00:48:34.171Z,9.02
2022-12-02T00:53:28.663Z,8.95
2022-12-02T00:58:22.075Z,8.57
2022-12-02T01:03:15.572Z,9.25
2022-12-02T01:08:12.675Z,9.68
2022-12-02T01:13:06.030Z,9.13
2022-12-02T01:18:01.185Z,8.82
2022-12-02T01:22:54.664Z,9.48
2022-12-02T01:27:48.210Z,9.80
2022-12-02T01:32:41.489Z,9.77
2022-12-02T01:37:34.900Z,9.15
2022-12-02T01:42:27.991Z,9.13
2022-12-02T01:47:22.709Z,8.90
2022-12-02T01:52:15.679Z,8.80
2022-12-02T01:57:13.615Z,9.90
2022-12-02T02:02:33.361Z,9.13
2022-12-02T02:07:26.749Z,9.85
2022-12-02T02:12:20.764Z,9.90
2022-12-02T02:17:14.674Z,10.15
2022-12-02T02:22:17.615Z,9.13
2022-12-02T02:27:11.386Z,9.23
2022-12-02T02:32:05.919Z,8.85
2022-12-02T02:36:59.567Z,9.80
2022-12-02T02:41:55.516Z,9.35
2022-12-02T02:46:49.622Z,9.05
2022-12-02T02:51:43.869Z,8.98
2022-12-02T02:56:41.408Z,8.95
2022-12-02T03:01:38.392Z,8.75
2022-12-02T03:06:34.240Z,9.20
2022-12-02T03:11:29.054Z,9.15
2022-12-02T03:16:24.437Z,9.75
2022-12-02T03:21:21.116Z,9.52
2022-12-02T03:26:16.622Z,8.07
2022-12-02T03:31:12.323Z,9.60
2022-12-02T03:36:08.481Z,9.30
2022-12-02T03:41:05.884Z,9.85
2022-12-02T03:46:01.603Z,9.63
2022-12-02T03:50:55.871Z,8.60
2022-12-02T03:55:50.589Z,8.00
2022-12-02T04:00:43.700Z,8.98
2022-12-02T04:05:37.176Z,8.13
2022-12-02T04:10:30.513Z,8.10
2022-12-02T04:15:24.598Z,8.52
2022-12-02T04:20:19.116Z,8.90
2022-12-02T04:25:12.670Z,8.60
2022-12-02T04:30:07.798Z,8.27
2022-12-02T04:35:01.106Z,8.55
2022-12-02T04:39:55.374Z,9.02
2022-12-02T04:44:48.978Z,8.32
2022-12-02T04:49:42.224Z,8.38
2022-12-02T04:54:35.808Z,8.35
2022-12-02T04:59:28.781Z,8.77
2022-12-02T05:04:21.800Z,7.75
2022-12-02T05:09:15.753Z,8.40
2022-12-02T05:14:10.100Z,8.93
2022-12-02T05:19:03.485Z,8.43
2022-12-02T05:23:57.661Z,8.20
2022-12-02T05:28:51.739Z,7.63
2022-12-02T05:33:45.870Z,7.65
2022-12-02T05:38:40.293Z,7.05
2022-12-02T05:43:39.892Z,7.88
2022-12-02T05:48:35.710Z,7.45
2022-12-02T05:53:29.173Z,7.82
2022-12-02T05:58:23.589Z,7.25
2022-12-02T06:03:20.587Z,7.32
2022-12-02T06:08:26.959Z,7.50
2022-12-02T06:13:23.041Z,7.25
2022-12-02T06:18:27.893Z,7.50
2022-12-02T06:23:22.465Z,7.28
2022-12-02T06:28:24.369Z,7.18
2022-12-02T06:33:26.093Z,6.97
2022-12-02T06:38:31.506Z,7.53
2022-12-02T06:43:30.040Z,8.95
2022-12-02T06:48:33.008Z,9.10
2022-12-02T06:53:40.102Z,9.32
2022-12-02T06:58:58.927Z,9.88
2022-12-02T07:04:02.920Z,10.43
2022-12-02T07:09:01.783Z,10.00
2022-12-02T07:13:55.641Z,10.02
2022-12-02T07:18:49.563Z,13.88
2022-12-02T07:23:44.033Z,13.23
2022-12-02T07:28:41.361Z,12.93
2022-12-02T07:33:35.438Z,13.30
2022-12-02T07:38:57.606Z,12.32
2022-12-02T07:43:46.032Z,10.23
2022-12-02T07:48:40.144Z,10.23
2022-12-02T07:53:33.907Z,9.68
2022-12-02T07:58:48.374Z,9.25
2022-12-02T08:03:40.040Z,7.90
2022-12-02T08:08:32.965Z,7.47
2022-12-02T08:13:26.765Z,6.55
2022-12-02T08:18:20.104Z,5.68
2022-12-02T08:23:13.608Z,5.25
2022-12-02T08:28:07.245Z,5.20
2022-12-02T08:33:01.345Z,4.53
2022-12-02T08:37:55.454Z,4.10
2022-12-02T08:42:51.994Z,4.18
2022-12-02T08:47:46.158Z,3.95
2022-12-02T08:52:39.782Z,3.67
2022-12-02T08:57:33.039Z,3.40
2022-12-02T09:02:26.675Z,3.30
2022-12-02T09:07:20.574Z,2.90
2022-12-02T09:12:13.856Z,3.03
2022-12-02T09:17:06.661Z,2.53
2022-12-02T09:22:00.135Z,2.60
2022-12-02T09:26:53.182Z,2.60
2022-12-02T09:31:46.349Z,2.30
2022-12-02T09:36:40.319Z,2.60
2022-12-02T09:41:34.713Z,2.50
2022-12-02T09:46:31.701Z,1.98
2022-12-02T09:51:24.918Z,2.88
2022-12-02T09:56:20.371Z,2.45
2022-12-02T10:01:16.305Z,2.13
2022-12-02T10:06:17.293Z,2.70
2022-12-02T10:16:14.350Z,3.05
2022-12-02T10:21:07.383Z,2.75
2022-12-02T10:26:16.353Z,2.67
2022-12-02T10:31:14.235Z,2.80
2022-12-02T10:36:08.894Z,2.50
2022-12-02T10:41:23.594Z,2.00
2022-12-02T10:46:20.046Z,2.10
2022-12-02T10:51:18.349Z,2.10
2022-12-02T10:56:25.820Z,1.80
2022-12-02T11:01:21.802Z,1.98
2022-12-02T11:06:21.070Z,2.08
2022-12-02T11:11:17.986Z,2.08
2022-12-02T11:16:29.611Z,1.88
2022-12-02T11:21:29.294Z,1.70
2022-12-02T11:26:47.327Z,1.88
2022-12-02T11:31:40.657Z,1.50
2022-12-02T11:36:35.589Z,1.80
2022-12-02T11:41:32.193Z,1.73
2022-12-02T11:46:50.431Z,1.98
2022-12-02T11:51:49.630Z,1.60
2022-12-02T11:56:45.113Z,1.80
2022-12-02T12:01:39.140Z,1.85
2022-12-02T12:06:35.395Z,1.85
2022-12-02T12:11:54.341Z,1.73
2022-12-02T12:16:50.042Z,1.70
2022-12-02T12:21:57.710Z,3.20
2022-12-02T12:27:12.078Z,58.80
2022-12-02T12:32:07.158Z,57.72
2022-12-02T12:37:00.043Z,54.00
2022-12-02T12:42:32.288Z,49.63
2022-12-02T12:47:25.460Z,45.80
2022-12-02T12:52:18.429Z,40.35
2022-12-02T12:57:51.039Z,37.50
2022-12-02T13:02:44.393Z,36.47
2022-12-02T13:07:40.258Z,35.33
2022-12-02T13:12:34.266Z,33.20
2022-12-02T13:17:28.592Z,32.97
2022-12-02T13:22:22.523Z,28.60
2022-12-02T13:27:16.278Z,28.17
2022-12-02T13:32:10.022Z,29.38
2022-12-02T13:37:04.068Z,25.45
2022-12-02T13:41:57.941Z,24.20
2022-12-02T13:46:51.746Z,23.50
2022-12-02T13:51:45.723Z,22.45
2022-12-02T13:56:39.643Z,22.33
2022-12-02T14:01:34.298Z,21.00
2022-12-02T14:06:27.614Z,21.05
2022-12-02T14:11:22.281Z,20.90
2022-12-02T14:16:15.163Z,19.40
2022-12-02T14:21:08.581Z,19.60
2022-12-02T14:26:01.907Z,18.75
2022-12-02T14:30:55.979Z,18.77
2022-12-02T14:35:49.594Z,17.83
2022-12-02T14:40:44.021Z,17.48
2022-12-02T14:45:38.269Z,16.13
2022-12-02T14:50:36.096Z,16.13
2022-12-02T14:55:29.191Z,16.38
2022-12-02T15:00:23.568Z,15.93
2022-12-02T15:05:21.467Z,15.95
2022-12-02T15:10:15.812Z,15.30
2022-12-02T15:20:27.010Z,13.80
2022-12-02T15:25:20.389Z,13.93
2022-12-02T15:30:14.746Z,13.65
2022-12-02T15:35:09.656Z,12.60
2022-12-02T15:40:03.355Z,13.27
2022-12-02T15:44:57.199Z,12.73
2022-12-02T15:49:51.327Z,12.77
2022-12-02T15:54:44.887Z,12.05
2022-12-02T15:59:37.983Z,12.55
2022-12-02T16:04:33.246Z,11.45
2022-12-02T16:09:27.021Z,11.85
2022-12-02T16:14:20.854Z,10.95
2022-12-02T16:19:14.552Z,11.77
2022-12-02T16:24:08.664Z,11.32
2022-12-02T16:29:05.545Z,10.40
2022-12-02T16:33:59.705Z,10.50
2022-12-02T16:38:53.592Z,10.57
2022-12-02T16:43:47.394Z,10.30
2022-12-02T16:48:42.424Z,9.35
2022-12-02T16:53:37.552Z,10.38
2022-12-02T16:58:30.549Z,9.50
2022-12-02T17:03:23.551Z,8.85
2022-12-02T17:08:17.010Z,9.35
2022-12-02T17:13:11.090Z,9.05
2022-12-02T17:18:04.443Z,9.55
2022-12-02T17:22:58.569Z,9.68
2022-12-02T17:27:55.793Z,8.80
2022-12-02T17:32:56.264Z,8.88
2022-12-02T17:42:42.845Z,9.57
2022-12-02T17:47:36.159Z,8.55
2022-12-02T17:52:29.610Z,8.40
2022-12-02T17:57:23.618Z,8.25
2022-12-02T18:02:17.059Z,8.93
2022-12-02T18:07:10.724Z,8.40
2022-12-02T18:12:03.911Z,8.15
2022-12-02T18:16:58.345Z,8.45
2022-12-02T18:21:52.599Z,8.27
2022-12-02T18:26:46.768Z,7.80
2022-12-02T18:31:40.064Z,8.57
2022-12-02T18:36:34.704Z,8.52
2022-12-02T18:41:29.297Z,7.93
2022-12-02T18:46:26.863Z,12.38
2022-12-02T18:51:24.407Z,11.15
2022-12-02T18:56:23.487Z,11.25
2022-12-02T19:01:20.259Z,11.75
2022-12-02T19:06:17.483Z,11.25
2022-12-02T19:11:10.775Z,10.25
2022-12-02T19:16:06.756Z,9.48
2022-12-02T19:21:02.843Z,9.00
2022-12-02T19:25:56.335Z,7.80
2022-12-02T19:30:50.552Z,7.25
2022-12-02T19:35:44.272Z,7.22
2022-12-02T19:40:45.211Z,6.78
2022-12-02T19:45:40.257Z,5.78
2022-12-02T19:50:33.964Z,5.50
2022-12-02T19:55:26.967Z,5.43
2022-12-02T20:00:21.966Z,5.55
2022-12-02T20:05:18.184Z,5.15
2022-12-02T20:10:13.492Z,4.90
2022-12-02T20:15:07.465Z,4.95
2022-12-02T20:19:59.939Z,5.22
2022-12-02T20:24:53.215Z,5.20
2022-12-02T20:29:46.913Z,4.50
2022-12-02T20:34:41.316Z,4.90
2022-12-02T20:39:35.582Z,5.43
2022-12-02T20:44:33.228Z,5.63
2022-12-02T20:49:26.302Z,5.15
2022-12-02T20:54:23.547Z,5.45
2022-12-02T20:59:17.195Z,5.40
2022-12-02T21:04:12.166Z,5.43
2022-12-02T21:09:07.092Z,5.90
2022-12-02T21:14:04.343Z,4.82
2022-12-02T21:18:58.169Z,4.78
2022-12-02T21:23:51.282Z,5.35
2022-12-02T21:28:44.832Z,5.65
2022-12-02T21:33:39.119Z,5.05
2022-12-02T21:38:33.160Z,5.60
2022-12-02T21:43:31.566Z,5.35
2022-12-02T21:48:25.166Z,4.85
2022-12-02T21:53:17.575Z,4.95
2022-12-02T21:58:11.501Z,5.20
2022-12-02T22:03:08.379Z,5.43
2022-12-02T22:08:06.522Z,4.70
2022-12-02T22:13:00.092Z,4.90
2022-12-02T22:17:54.115Z,4.75
2022-12-02T22:22:48.030Z,4.97
2022-12-02T22:27:42.049Z,4.50
2022-12-02T22:32:36.048Z,4.30
2022-12-02T22:37:29.886Z,4.70
2022-12-02T22:42:24.798Z,5.03
2022-12-02T22:47:19.586Z,4.50
2022-12-02T22:52:13.167Z,4.53
2022-12-02T22:57:07.433Z,4.80
2022-12-02T23:02:01.121Z,4.57
2022-12-02T23:06:55.110Z,4.28
2022-12-02T23:11:48.583Z,4.45
2022-12-02T23:16:43.563Z,5.03
2022-12-02T23:21:36.974Z,4.25
2022-12-02T23:26:31.065Z,4.07
2022-12-02T23:31:24.762Z,4.45
2022-12-02T23:36:18.697Z,4.20
2022-12-02T23:41:12.146Z,4.75
2022-12-02T23:46:05.416Z,4.43
2022-12-02T23:50:59.123Z,4.10
2022-12-02T23:55:54.022Z,3.88
